createdAt,value
2023-05-09T00:01:18.274Z,28.40
2023-05-09T00:03:47.820Z,27.93
2023-05-09T00:06:17.370Z,28.47
2023-05-09T00:08:46.645Z,26.50
2023-05-09T00:11:15.936Z,26.37
2023-05-09T00:13:45.898Z,26.80
2023-05-09T00:16:16.123Z,26.60
2023-05-09T00:18:45.806Z,24.35
2023-05-09T00:21:15.064Z,21.93
2023-05-09T00:23:44.753Z,27.52
2023-05-09T00:26:14.350Z,25.02
2023-05-09T00:28:45.157Z,22.13
2023-05-09T00:31:14.598Z,23.45
2023-05-09T00:33:43.899Z,21.25
2023-05-09T00:36:13.173Z,21.77
2023-05-09T00:38:42.523Z,22.22
2023-05-09T00:41:12.144Z,22.27
2023-05-09T00:43:41.825Z,22.25
2023-05-09T00:46:11.741Z,19.15
2023-05-09T00:48:41.689Z,24.12
2023-05-09T00:51:11.327Z,18.92
2023-05-09T00:53:40.768Z,17.95
2023-05-09T00:56:10.730Z,19.60
2023-05-09T00:58:40.263Z,17.95
2023-05-09T01:01:09.851Z,18.32
2023-05-09T01:03:41.256Z,15.83
2023-05-09T01:06:20.192Z,15.93
2023-05-09T01:09:24.628Z,17.42
2023-05-09T01:12:06.016Z,19.77
2023-05-09T01:14:55.353Z,20.17
2023-05-09T01:17:40.632Z,20.90
2023-05-09T01:20:34.662Z,19.35
2023-05-09T01:23:25.301Z,18.25
2023-05-09T01:26:09.471Z,16.90
2023-05-09T01:29:05.000Z,18.52
2023-05-09T01:31:36.225Z,17.87
2023-05-09T01:34:06.389Z,21.57
2023-05-09T01:36:38.457Z,20.77
2023-05-09T01:39:08.095Z,19.15
2023-05-09T01:41:39.148Z,22.75
2023-05-09T01:44:11.182Z,20.75
2023-05-09T01:46:41.268Z,18.57
2023-05-09T01:49:10.640Z,21.15
2023-05-09T01:51:43.031Z,22.15
2023-05-09T01:54:13.394Z,18.55
2023-05-09T01:56:44.249Z,20.65
2023-05-09T01:59:16.351Z,24.30
2023-05-09T02:01:47.221Z,20.27
2023-05-09T02:04:17.804Z,19.85
2023-05-09T02:06:49.363Z,19.75
2023-05-09T02:09:21.161Z,25.10
2023-05-09T02:11:50.428Z,20.45
2023-05-09T02:14:20.102Z,20.75
2023-05-09T02:16:49.742Z,20.02
2023-05-09T02:19:19.453Z,20.00
2023-05-09T02:21:50.318Z,22.50
2023-05-09T02:24:19.986Z,19.60
2023-05-09T02:26:49.609Z,19.92
2023-05-09T02:29:20.737Z,19.85
2023-05-09T02:31:51.850Z,21.95
2023-05-09T02:34:22.245Z,20.68
2023-05-09T02:36:52.062Z,19.80
2023-05-09T02:39:21.402Z,20.40
2023-05-09T02:41:50.911Z,21.00
2023-05-09T02:44:20.772Z,21.57
2023-05-09T02:46:50.577Z,21.25
2023-05-09T02:49:31.429Z,22.75
2023-05-09T02:51:51.811Z,22.35
2023-05-09T02:54:21.752Z,20.95
2023-05-09T02:56:51.048Z,20.92
2023-05-09T02:59:20.610Z,19.32
2023-05-09T03:01:50.260Z,22.93
2023-05-09T03:04:19.848Z,19.50
2023-05-09T03:06:49.602Z,20.68
2023-05-09T03:09:19.233Z,19.37
2023-05-09T03:11:48.594Z,18.15
2023-05-09T03:14:18.649Z,24.92
2023-05-09T03:16:48.177Z,18.27
2023-05-09T03:19:19.486Z,20.25
2023-05-09T03:21:48.760Z,19.90
2023-05-09T03:24:18.219Z,22.32
2023-05-09T03:26:47.510Z,21.52
2023-05-09T03:29:16.868Z,22.77
2023-05-09T03:31:46.378Z,22.15
2023-05-09T03:34:16.486Z,19.10
2023-05-09T03:36:46.151Z,22.00
2023-05-09T03:39:16.600Z,22.30
2023-05-09T03:41:47.819Z,19.35
2023-05-09T03:44:17.142Z,21.42
2023-05-09T03:46:46.496Z,20.27
2023-05-09T03:49:16.524Z,19.98
2023-05-09T03:51:47.544Z,18.75
2023-05-09T03:54:17.869Z,21.68
2023-05-09T03:56:48.517Z,19.70
2023-05-09T03:59:17.869Z,22.70
2023-05-09T04:01:47.555Z,19.32
2023-05-09T04:04:18.772Z,19.20
2023-05-09T04:06:48.714Z,18.42
2023-05-09T04:09:18.332Z,18.35
2023-05-09T04:11:48.281Z,20.50
2023-05-09T04:14:18.578Z,16.90
2023-05-09T04:16:47.923Z,17.95
2023-05-09T04:19:17.535Z,16.50
2023-05-09T04:21:46.921Z,17.50
2023-05-09T04:24:17.005Z,18.27
2023-05-09T04:26:48.401Z,20.57
2023-05-09T04:29:19.357Z,19.10
2023-05-09T04:31:50.793Z,19.50
2023-05-09T04:34:20.693Z,18.98
2023-05-09T04:36:52.137Z,17.80
2023-05-09T04:39:21.758Z,19.00
2023-05-09T04:42:02.672Z,17.55
2023-05-09T04:44:33.236Z,17.25
2023-05-09T04:47:02.620Z,18.27
2023-05-09T04:49:31.963Z,17.23
2023-05-09T04:52:01.248Z,18.85
2023-05-09T04:54:32.238Z,17.73
2023-05-09T04:57:13.788Z,18.32
2023-05-09T04:59:33.436Z,17.05
2023-05-09T05:02:03.493Z,17.23
2023-05-09T05:04:33.798Z,18.20
2023-05-09T05:07:05.252Z,17.82
2023-05-09T05:09:34.804Z,16.97
2023-05-09T05:12:07.443Z,16.30
2023-05-09T05:14:37.152Z,17.67
2023-05-09T05:17:07.139Z,19.00
2023-05-09T05:19:36.540Z,16.60
2023-05-09T05:22:06.614Z,18.25
2023-05-09T05:24:37.275Z,17.37
2023-05-09T05:27:06.630Z,18.92
2023-05-09T05:29:36.282Z,20.08
2023-05-09T05:32:06.301Z,20.55
2023-05-09T05:34:36.779Z,19.85
2023-05-09T05:37:06.286Z,17.87
2023-05-09T05:39:36.241Z,17.65
2023-05-09T05:42:06.005Z,17.35
2023-05-09T05:44:35.765Z,18.02
2023-05-09T05:47:05.724Z,18.52
2023-05-09T05:49:35.016Z,19.02
2023-05-09T05:52:04.988Z,16.87
2023-05-09T05:54:34.666Z,17.10
2023-05-09T05:57:04.360Z,19.23
2023-05-09T05:59:33.918Z,18.05
2023-05-09T06:02:04.346Z,20.50
2023-05-09T06:04:34.283Z,21.15
2023-05-09T06:07:03.714Z,19.92
2023-05-09T06:09:33.612Z,21.27
2023-05-09T06:12:02.874Z,20.55
2023-05-09T06:14:32.691Z,25.52
2023-05-09T06:17:02.678Z,20.50
2023-05-09T06:19:32.589Z,19.17
2023-05-09T06:22:02.000Z,23.20
2023-05-09T06:24:35.561Z,20.72
2023-05-09T06:27:02.417Z,20.52
2023-05-09T06:29:32.142Z,24.02
2023-05-09T06:32:01.712Z,20.37
2023-05-09T06:34:31.116Z,24.98
2023-05-09T06:37:00.448Z,22.50
2023-05-09T06:39:29.908Z,23.15
2023-05-09T06:41:59.162Z,23.00
2023-05-09T06:44:30.484Z,21.62
2023-05-09T06:46:59.752Z,21.45
2023-05-09T06:49:29.036Z,22.22
2023-05-09T06:51:58.304Z,22.32
2023-05-09T06:54:27.773Z,22.85
2023-05-09T06:56:57.027Z,20.05
2023-05-09T06:59:27.104Z,21.80
2023-05-09T07:01:56.760Z,20.55
2023-05-09T07:04:26.850Z,24.05
2023-05-09T07:06:56.453Z,24.02
2023-05-09T07:09:27.687Z,23.52
2023-05-09T07:11:57.229Z,24.63
2023-05-09T07:14:27.048Z,23.92
2023-05-09T07:17:05.152Z,22.58
2023-05-09T07:19:27.432Z,26.42
2023-05-09T07:21:56.954Z,24.15
2023-05-09T07:24:26.303Z,22.60
2023-05-09T07:26:55.585Z,23.07
2023-05-09T07:29:24.856Z,24.47
2023-05-09T07:31:54.269Z,23.75
2023-05-09T07:34:25.432Z,25.55
2023-05-09T07:36:54.806Z,25.05
2023-05-09T07:39:24.463Z,24.43
2023-05-09T07:41:54.148Z,25.97
2023-05-09T07:44:23.756Z,25.40
2023-05-09T07:46:55.038Z,22.30
2023-05-09T07:49:24.311Z,27.60
2023-05-09T07:51:54.040Z,22.80
2023-05-09T07:54:23.308Z,19.65
2023-05-09T07:56:52.611Z,23.55
2023-05-09T07:59:21.856Z,22.05
2023-05-09T08:01:51.203Z,18.90
2023-05-09T08:04:20.682Z,19.30
2023-05-09T08:06:50.308Z,19.12
2023-05-09T08:09:19.912Z,20.97
2023-05-09T08:11:49.417Z,19.52
2023-05-09T08:14:18.962Z,18.55
2023-05-09T08:16:48.260Z,20.35
2023-05-09T08:19:17.828Z,21.37
2023-05-09T08:21:47.225Z,15.58
2023-05-09T08:24:16.509Z,17.25
2023-05-09T08:26:46.283Z,18.77
2023-05-09T08:29:16.516Z,15.85
2023-05-09T08:31:47.087Z,19.82
2023-05-09T08:34:17.211Z,18.07
2023-05-09T08:36:47.380Z,18.32
2023-05-09T08:39:16.891Z,18.12
2023-05-09T08:41:46.475Z,16.32
2023-05-09T08:44:16.173Z,17.85
2023-05-09T08:46:45.858Z,16.73
2023-05-09T08:49:16.697Z,16.75
2023-05-09T08:51:46.451Z,17.05
2023-05-09T08:54:17.305Z,20.57
2023-05-09T08:56:46.869Z,17.60
2023-05-09T08:59:16.604Z,18.00
2023-05-09T09:01:46.353Z,16.62
2023-05-09T09:04:16.033Z,19.23
2023-05-09T09:06:46.048Z,18.67
2023-05-09T09:09:16.741Z,16.42
2023-05-09T09:11:46.150Z,17.20
2023-05-09T09:14:18.008Z,18.87
2023-05-09T09:16:48.011Z,16.48
2023-05-09T09:19:18.735Z,17.37
2023-05-09T09:21:48.480Z,16.07
2023-05-09T09:24:21.007Z,18.77
2023-05-09T09:26:51.353Z,17.75
2023-05-09T09:29:21.230Z,19.05
2023-05-09T09:31:57.815Z,17.77
2023-05-09T09:34:27.603Z,17.48
2023-05-09T09:36:57.061Z,17.27
2023-05-09T09:39:26.313Z,19.20
2023-05-09T09:41:55.915Z,18.42
2023-05-09T09:44:25.921Z,16.15
2023-05-09T09:46:56.740Z,17.30
2023-05-09T09:49:27.623Z,15.88
2023-05-09T09:51:58.457Z,18.55
2023-05-09T09:54:28.561Z,19.17
2023-05-09T09:56:57.902Z,18.85
2023-05-09T09:59:28.382Z,20.92
2023-05-09T10:02:08.397Z,20.05
2023-05-09T10:04:40.582Z,19.12
2023-05-09T10:07:14.827Z,19.55
2023-05-09T10:09:44.003Z,21.33
2023-05-09T10:12:15.442Z,21.97
2023-05-09T10:14:45.004Z,21.42
2023-05-09T10:17:16.322Z,19.67
2023-05-09T10:19:47.584Z,21.48
2023-05-09T10:22:19.302Z,19.98
2023-05-09T10:24:51.116Z,20.03
2023-05-09T10:27:23.052Z,18.43
2023-05-09T10:30:06.067Z,19.50
2023-05-09T10:32:56.084Z,19.80
2023-05-09T10:35:43.979Z,20.32
2023-05-09T10:38:14.452Z,18.12
2023-05-09T10:40:46.935Z,17.73
2023-05-09T10:43:16.677Z,18.25
2023-05-09T10:45:46.499Z,17.52
2023-05-09T10:48:16.194Z,17.62
2023-05-09T10:50:46.849Z,18.60
2023-05-09T10:53:17.817Z,19.42
2023-05-09T10:55:56.539Z,17.60
2023-05-09T10:58:28.366Z,18.98
2023-05-09T11:00:59.219Z,18.52
2023-05-09T11:03:30.790Z,19.37
2023-05-09T11:06:02.219Z,18.60
2023-05-09T11:08:33.420Z,19.12
2023-05-09T11:11:07.937Z,17.77
2023-05-09T11:13:41.092Z,17.07
2023-05-09T11:16:11.626Z,19.50
2023-05-09T11:18:52.079Z,17.35
2023-05-09T11:21:22.145Z,19.20
2023-05-09T11:23:55.053Z,16.10
2023-05-09T11:26:24.413Z,20.02
2023-05-09T11:28:55.221Z,18.50
2023-05-09T11:31:24.936Z,19.48
2023-05-09T11:33:58.303Z,17.23
2023-05-09T11:36:35.597Z,15.68
2023-05-09T11:39:09.289Z,16.27
2023-05-09T11:41:41.274Z,17.50
2023-05-09T11:44:23.597Z,14.73
2023-05-09T11:46:53.544Z,16.15
2023-05-09T11:49:22.797Z,16.80
2023-05-09T11:51:52.101Z,14.28
2023-05-09T11:54:23.503Z,14.63
2023-05-09T11:56:52.910Z,14.93
2023-05-09T11:59:22.562Z,16.27
2023-05-09T12:01:51.916Z,15.50
2023-05-09T12:04:21.468Z,16.85
2023-05-09T12:06:50.842Z,16.55
2023-05-09T12:09:22.300Z,16.25
2023-05-09T12:11:51.604Z,16.32
2023-05-09T12:14:31.691Z,18.00
2023-05-09T12:17:00.948Z,17.65
2023-05-09T12:19:30.474Z,15.40
2023-05-09T12:22:01.270Z,16.02
2023-05-09T12:24:31.433Z,12.23
2023-05-09T12:27:01.342Z,15.48
2023-05-09T12:29:30.878Z,13.22
2023-05-09T12:32:00.843Z,14.70
2023-05-09T12:34:30.451Z,31.33
2023-05-09T12:37:01.948Z,15.65
2023-05-09T12:39:31.225Z,14.43
2023-05-09T12:42:01.953Z,16.42
2023-05-09T12:44:31.925Z,14.45
2023-05-09T12:47:04.038Z,15.50
2023-05-09T12:49:33.653Z,14.28
2023-05-09T12:52:04.785Z,13.70
2023-05-09T12:54:33.885Z,13.38
2023-05-09T12:57:05.104Z,13.80
2023-05-09T12:59:34.379Z,12.60
2023-05-09T13:02:04.016Z,10.98
2023-05-09T13:04:33.816Z,11.83
2023-05-09T13:07:06.546Z,11.45
2023-05-09T13:09:36.181Z,11.65
2023-05-09T13:12:05.946Z,11.70
2023-05-09T13:14:35.407Z,12.60
2023-05-09T13:17:04.747Z,12.63
2023-05-09T13:19:36.003Z,11.30
2023-05-09T13:22:05.722Z,14.78
2023-05-09T13:24:35.051Z,16.85
2023-05-09T13:27:04.909Z,11.88
2023-05-09T13:29:34.606Z,10.58
2023-05-09T13:32:03.868Z,13.55
2023-05-09T13:34:33.525Z,8.65
2023-05-09T13:37:03.945Z,11.30
2023-05-09T13:39:33.417Z,14.58
2023-05-09T13:42:03.985Z,15.23
2023-05-09T13:44:33.403Z,17.48
2023-05-09T13:47:02.932Z,12.33
2023-05-09T13:49:32.230Z,9.23
2023-05-09T13:52:01.726Z,12.80
2023-05-09T13:54:32.642Z,11.38
2023-05-09T13:57:03.904Z,10.10
2023-05-09T13:59:33.510Z,14.33
2023-05-09T14:02:03.232Z,10.23
2023-05-09T14:04:32.986Z,4.75
2023-05-09T14:07:05.233Z,4.47
2023-05-09T14:09:36.146Z,3.80
2023-05-09T14:12:05.683Z,4.33
2023-05-09T14:14:35.611Z,4.28
2023-05-09T14:17:04.927Z,4.40
2023-05-09T14:19:35.152Z,4.90
2023-05-09T14:22:04.692Z,6.00
2023-05-09T14:24:37.328Z,7.28
2023-05-09T14:27:08.387Z,7.30
2023-05-09T14:29:41.131Z,7.85
2023-05-09T14:32:14.749Z,6.97
2023-05-09T14:34:45.225Z,8.08
2023-05-09T14:37:14.911Z,7.15
2023-05-09T14:39:49.512Z,8.58
2023-05-09T14:42:19.822Z,7.42
2023-05-09T14:44:49.373Z,7.12
2023-05-09T14:47:18.686Z,8.48
2023-05-09T14:49:48.040Z,6.03
2023-05-09T14:52:17.712Z,6.67
2023-05-09T14:54:47.513Z,6.42
2023-05-09T14:57:17.275Z,6.12
2023-05-09T14:59:47.113Z,6.80
2023-05-09T15:02:16.452Z,6.25
2023-05-09T15:04:46.029Z,7.70
2023-05-09T15:07:15.332Z,7.75
2023-05-09T15:09:44.864Z,6.97
2023-05-09T15:12:14.266Z,8.10
2023-05-09T15:14:43.538Z,7.58
2023-05-09T15:17:13.139Z,7.40
2023-05-09T15:19:42.414Z,8.25
2023-05-09T15:22:12.515Z,8.33
2023-05-09T15:24:43.417Z,7.80
2023-05-09T15:27:12.927Z,10.05
2023-05-09T15:29:42.211Z,9.35
2023-05-09T15:32:11.835Z,8.93
2023-05-09T15:34:41.307Z,9.73
2023-05-09T15:37:10.713Z,11.03
2023-05-09T15:39:45.364Z,10.03
2023-05-09T15:42:16.957Z,11.08
2023-05-09T15:44:50.020Z,11.20
2023-05-09T15:47:19.483Z,11.35
2023-05-09T15:49:48.890Z,10.25
2023-05-09T15:52:18.262Z,10.23
2023-05-09T15:54:47.630Z,10.50
2023-05-09T15:57:18.246Z,10.15
2023-05-09T15:59:47.880Z,11.48
2023-05-09T16:02:17.403Z,9.85
2023-05-09T16:04:47.356Z,10.20
2023-05-09T16:07:16.667Z,9.60
2023-05-09T16:09:46.397Z,9.53
2023-05-09T16:12:15.688Z,11.05
2023-05-09T16:14:45.714Z,10.60
2023-05-09T16:17:15.074Z,10.53
2023-05-09T16:19:44.999Z,10.95
2023-05-09T16:22:14.262Z,11.80
2023-05-09T16:24:44.585Z,10.30
2023-05-09T16:27:14.735Z,10.38
2023-05-09T16:29:44.346Z,11.35
2023-05-09T16:32:13.621Z,10.23
2023-05-09T16:34:43.278Z,10.53
2023-05-09T16:37:12.640Z,10.65
2023-05-09T16:39:41.934Z,9.65
2023-05-09T16:42:11.286Z,10.53
2023-05-09T16:44:41.103Z,10.58
2023-05-09T16:47:10.368Z,10.40
2023-05-09T16:49:39.686Z,9.65
2023-05-09T16:52:09.017Z,12.43
2023-05-09T16:54:38.310Z,11.18
2023-05-09T16:57:07.563Z,8.33
2023-05-09T16:59:37.300Z,8.78
2023-05-09T17:02:07.100Z,9.18
2023-05-09T17:04:37.794Z,9.10
2023-05-09T17:07:07.314Z,8.75
2023-05-09T17:09:36.610Z,10.38
2023-05-09T17:12:06.302Z,9.50
2023-05-09T17:14:36.084Z,11.28
2023-05-09T17:17:05.542Z,8.60
2023-05-09T17:19:35.564Z,10.30
2023-05-09T17:22:05.787Z,9.13
2023-05-09T17:24:35.889Z,11.85
2023-05-09T17:27:06.488Z,9.33
2023-05-09T17:29:36.332Z,11.53
2023-05-09T17:32:07.642Z,11.20
2023-05-09T17:34:37.967Z,11.12
2023-05-09T17:37:09.019Z,9.83
2023-05-09T17:39:38.432Z,11.53
2023-05-09T17:42:08.437Z,10.50
2023-05-09T17:44:38.878Z,10.48
2023-05-09T17:47:08.530Z,12.30
2023-05-09T17:49:38.189Z,9.30
2023-05-09T17:52:07.596Z,11.03
2023-05-09T17:54:37.908Z,12.35
2023-05-09T17:57:07.393Z,9.18
2023-05-09T17:59:38.405Z,9.65
2023-05-09T18:02:08.968Z,9.25
2023-05-09T18:04:38.344Z,6.58
2023-05-09T18:07:08.952Z,6.72
2023-05-09T18:09:38.253Z,7.15
2023-05-09T18:12:08.930Z,5.85
2023-05-09T18:14:39.990Z,6.83
2023-05-09T18:17:09.572Z,6.72
2023-05-09T18:19:40.573Z,7.80
2023-05-09T18:22:10.245Z,6.78
2023-05-09T18:24:41.877Z,7.15
2023-05-09T18:27:12.348Z,9.25
2023-05-09T18:29:42.256Z,9.55
2023-05-09T18:32:12.059Z,8.13
2023-05-09T18:34:42.313Z,8.70
2023-05-09T18:37:12.319Z,9.98
2023-05-09T18:39:41.988Z,9.38
2023-05-09T18:42:13.355Z,8.68
2023-05-09T18:44:43.480Z,8.03
2023-05-09T18:47:13.276Z,8.65
2023-05-09T18:49:43.104Z,6.37
2023-05-09T18:52:17.047Z,8.20
2023-05-09T18:54:47.144Z,7.10
2023-05-09T18:57:16.454Z,5.30
2023-05-09T18:59:46.384Z,9.18
2023-05-09T19:02:16.879Z,6.42
2023-05-09T19:04:46.812Z,10.40
2023-05-09T19:07:16.369Z,14.93
2023-05-09T19:09:45.817Z,16.67
2023-05-09T19:12:16.494Z,10.65
2023-05-09T19:14:46.232Z,13.55
2023-05-09T19:17:15.938Z,19.75
2023-05-09T19:19:45.496Z,9.13
2023-05-09T19:22:15.711Z,15.48
2023-05-09T19:24:45.072Z,20.10
2023-05-09T19:27:14.563Z,18.35
2023-05-09T19:29:44.044Z,15.70
2023-05-09T19:32:14.066Z,13.22
2023-05-09T19:34:43.409Z,10.55
2023-05-09T19:37:13.110Z,14.50
2023-05-09T19:39:42.477Z,17.05
2023-05-09T19:42:12.218Z,10.50
2023-05-09T19:44:41.593Z,13.72
2023-05-09T19:47:11.175Z,24.25
2023-05-09T19:49:42.325Z,16.20
2023-05-09T19:52:15.116Z,14.43
2023-05-09T19:54:44.725Z,10.40
2023-05-09T19:57:14.629Z,12.00
2023-05-09T19:59:44.281Z,12.78
2023-05-09T20:02:16.011Z,13.62
2023-05-09T20:04:47.253Z,15.43
2023-05-09T20:07:20.402Z,14.93
2023-05-09T20:09:50.066Z,16.02
2023-05-09T20:12:19.971Z,23.12
2023-05-09T20:14:49.650Z,31.17
2023-05-09T20:17:19.090Z,50.40
2023-05-09T20:19:48.377Z,21.87
2023-05-09T20:22:17.869Z,22.22
2023-05-09T20:24:47.245Z,20.85
2023-05-09T20:27:16.541Z,23.45
2023-05-09T20:29:45.965Z,22.82
2023-05-09T20:32:15.685Z,23.22
2023-05-09T20:34:44.958Z,21.87
2023-05-09T20:37:14.687Z,21.75
2023-05-09T20:39:44.154Z,28.42
2023-05-09T20:42:14.202Z,23.75
2023-05-09T20:44:44.205Z,25.85
2023-05-09T20:47:13.505Z,26.60
2023-05-09T20:49:42.763Z,30.02
2023-05-09T20:52:12.310Z,29.52
2023-05-09T20:54:41.880Z,31.73
2023-05-09T20:57:11.177Z,30.55
2023-05-09T20:59:40.597Z,29.23
2023-05-09T21:02:10.191Z,33.80
2023-05-09T21:04:39.925Z,37.50
2023-05-09T21:07:10.126Z,33.95
2023-05-09T21:09:40.027Z,34.90
2023-05-09T21:12:11.129Z,36.03
2023-05-09T21:14:41.002Z,39.40
2023-05-09T21:17:10.444Z,35.83
2023-05-09T21:19:39.700Z,43.05
2023-05-09T21:22:10.320Z,40.80
2023-05-09T21:24:39.657Z,38.63
2023-05-09T21:27:09.004Z,39.53
2023-05-09T21:29:38.267Z,38.08
2023-05-09T21:32:07.906Z,40.55
2023-05-09T21:34:37.704Z,38.63
2023-05-09T21:37:07.086Z,38.15
2023-05-09T21:39:36.468Z,40.38
2023-05-09T21:42:05.734Z,41.68
2023-05-09T21:44:36.501Z,41.90
2023-05-09T21:47:06.219Z,40.70
2023-05-09T21:49:36.082Z,45.38
2023-05-09T21:52:06.265Z,44.20
2023-05-09T21:54:35.565Z,47.05
2023-05-09T21:57:04.975Z,46.25
2023-05-09T21:59:34.630Z,47.03
2023-05-09T22:02:04.083Z,47.67
2023-05-09T22:04:33.345Z,48.28
2023-05-09T22:07:02.607Z,54.48
2023-05-09T22:09:31.882Z,50.88
2023-05-09T22:12:01.181Z,50.40
2023-05-09T22:14:30.720Z,55.33
2023-05-09T22:17:00.791Z,54.55
2023-05-09T22:19:30.284Z,58.17
2023-05-09T22:22:00.467Z,58.63
2023-05-09T22:24:29.747Z,58.68
2023-05-09T22:26:59.374Z,58.68
2023-05-09T22:29:28.891Z,62.75
2023-05-09T22:31:58.201Z,59.42
2023-05-09T22:34:27.595Z,62.55
2023-05-09T22:36:56.944Z,61.40
2023-05-09T22:39:26.861Z,63.80
2023-05-09T22:41:56.566Z,59.50
2023-05-09T22:44:25.820Z,55.63
2023-05-09T22:46:55.226Z,54.60
2023-05-09T22:49:25.250Z,58.05
2023-05-09T22:51:54.557Z,51.30
2023-05-09T22:54:23.835Z,53.08
2023-05-09T22:56:53.150Z,57.10
2023-05-09T22:59:22.718Z,50.90
2023-05-09T23:01:52.822Z,50.83
2023-05-09T23:04:22.085Z,54.27
2023-05-09T23:06:51.727Z,56.37
2023-05-09T23:09:20.989Z,55.95
2023-05-09T23:11:50.589Z,53.83
2023-05-09T23:14:19.931Z,59.65
2023-05-09T23:16:49.267Z,51.68
2023-05-09T23:19:19.754Z,52.80
2023-05-09T23:21:49.278Z,55.63
2023-05-09T23:24:18.992Z,54.35
2023-05-09T23:26:48.485Z,58.58
2023-05-09T23:29:17.840Z,57.23
2023-05-09T23:31:47.197Z,49.33
2023-05-09T23:34:17.149Z,54.60
2023-05-09T23:36:46.511Z,51.48
2023-05-09T23:39:17.196Z,49.55
2023-05-09T23:41:46.481Z,47.38
2023-05-09T23:44:16.166Z,51.53
2023-05-09T23:46:45.663Z,50.03
2023-05-09T23:49:15.024Z,50.78
2023-05-09T23:51:44.338Z,61.58
2023-05-09T23:54:13.602Z,47.20
2023-05-09T23:56:42.985Z,45.67
2023-05-09T23:59:12.265Z,47.15
